createdAt,value
2018-11-04T00:00:32.158Z,1014.49
2018-11-04T00:01:32.206Z,1014.50
2018-11-04T00:02:32.128Z,1014.52
2018-11-04T00:03:32.120Z,1014.51
2018-11-04T00:04:32.113Z,1014.49
2018-11-04T00:05:32.106Z,1014.45
2018-11-04T00:06:32.145Z,1014.49
2018-11-04T00:07:32.078Z,1014.51
2018-11-04T00:08:32.069Z,1014.52
2018-11-04T00:09:32.059Z,1014.52
2018-11-04T00:10:32.090Z,1014.52
2018-11-04T00:11:32.049Z,1014.50
2018-11-04T00:12:32.041Z,1014.53
2018-11-04T00:13:32.008Z,1014.55
2018-11-04T00:14:32.001Z,1014.55
2018-11-04T00:15:32.032Z,1014.55
2018-11-04T00:16:32.133Z,1014.56
2018-11-04T00:17:31.969Z,1014.56
2018-11-04T00:18:31.972Z,1014.59
2018-11-04T00:19:31.945Z,1014.54
2018-11-04T00:20:31.946Z,1014.54
2018-11-04T00:21:31.972Z,1014.53
2018-11-04T00:22:31.918Z,1014.52
2018-11-04T00:23:31.942Z,1014.49
2018-11-04T00:24:31.891Z,1014.49
2018-11-04T00:25:31.882Z,1014.45
2018-11-04T00:26:31.877Z,1014.44
2018-11-04T00:27:31.899Z,1014.47
2018-11-04T00:28:31.849Z,1014.43
2018-11-04T00:29:31.872Z,1014.43
2018-11-04T00:30:31.873Z,1014.39
2018-11-04T00:31:31.817Z,1014.39
2018-11-04T00:32:31.823Z,1014.32
2018-11-04T00:33:31.803Z,1014.35
2018-11-04T00:34:31.795Z,1014.34
2018-11-04T00:35:31.785Z,1014.34
2018-11-04T00:36:31.801Z,1014.30
2018-11-04T00:37:31.752Z,1014.28
2018-11-04T00:38:31.740Z,1014.23
2018-11-04T00:39:31.765Z,1014.23
2018-11-04T00:40:31.717Z,1014.19
2018-11-04T00:41:31.708Z,1014.17
2018-11-04T00:42:31.733Z,1014.14
2018-11-04T00:43:31.681Z,1014.11
2018-11-04T00:44:31.675Z,1014.10
2018-11-04T00:45:31.755Z,1014.00
2018-11-04T00:46:31.703Z,1014.00
2018-11-04T00:47:31.638Z,1014.00
2018-11-04T00:48:31.648Z,1014.08
2018-11-04T00:49:31.619Z,1014.05
2018-11-04T00:50:31.618Z,1013.99
2018-11-04T00:51:31.610Z,1014.02
2018-11-04T00:52:31.629Z,1013.99
2018-11-04T00:53:31.583Z,1013.99
2018-11-04T00:54:31.564Z,1013.97
2018-11-04T00:55:31.570Z,1013.97
2018-11-04T00:56:31.590Z,1013.96
2018-11-04T00:57:31.544Z,1013.94
2018-11-04T00:58:31.533Z,1013.89
2018-11-04T00:59:31.513Z,1013.88
2018-11-04T01:00:31.503Z,1013.82
2018-11-04T01:01:31.544Z,1013.85
2018-11-04T01:02:31.521Z,1013.84
2018-11-04T01:03:31.465Z,1013.84
2018-11-04T01:04:31.462Z,1013.83
2018-11-04T01:05:31.439Z,1013.79
2018-11-04T01:06:31.436Z,1013.75
2018-11-04T01:07:31.467Z,1013.77
2018-11-04T01:08:31.415Z,1013.76
2018-11-04T01:09:31.403Z,1013.69
2018-11-04T01:10:31.404Z,1013.69
2018-11-04T01:11:31.381Z,1013.63
2018-11-04T01:12:31.365Z,1013.65
2018-11-04T01:13:31.427Z,1013.61
2018-11-04T01:14:31.347Z,1013.61
2018-11-04T01:15:31.337Z,1013.60
2018-11-04T01:16:31.576Z,1013.59
2018-11-04T01:17:31.321Z,1013.56
2018-11-04T01:18:31.303Z,1013.51
2018-11-04T01:19:31.335Z,1013.51
2018-11-04T01:20:31.283Z,1013.50
2018-11-04T01:21:31.269Z,1013.46
2018-11-04T01:22:31.261Z,1013.46
2018-11-04T01:23:31.256Z,1013.43
2018-11-04T01:24:31.332Z,1013.45
2018-11-04T01:25:31.273Z,1013.38
2018-11-04T01:26:31.217Z,1013.41
2018-11-04T01:27:31.205Z,1013.39
2018-11-04T01:28:31.193Z,1013.35
2018-11-04T01:29:31.180Z,1013.36
2018-11-04T01:30:31.286Z,1013.33
2018-11-04T01:31:31.203Z,1013.41
2018-11-04T01:32:31.164Z,1013.32
2018-11-04T01:33:31.183Z,1013.30
2018-11-04T01:34:31.125Z,1013.31
2018-11-04T01:35:31.117Z,1013.26
2018-11-04T01:36:31.102Z,1013.26
2018-11-04T01:37:31.107Z,1013.26
2018-11-04T01:38:31.096Z,1013.21
2018-11-04T01:39:31.115Z,1013.20
2018-11-04T01:40:31.061Z,1013.16
2018-11-04T01:41:31.051Z,1013.14
2018-11-04T01:42:31.042Z,1013.18
2018-11-04T01:43:31.030Z,1013.15
2018-11-04T01:44:31.036Z,1013.06
2018-11-04T01:45:31.050Z,1013.06
2018-11-04T01:46:31.150Z,1013.05
2018-11-04T01:47:30.986Z,1013.06
2018-11-04T01:48:30.974Z,1013.06
2018-11-04T01:49:30.964Z,1013.03
2018-11-04T01:50:31.000Z,1013.02
2018-11-04T01:51:30.983Z,1012.98
2018-11-04T01:52:30.971Z,1012.97
2018-11-04T01:53:30.965Z,1012.95
2018-11-04T01:54:30.908Z,1012.97
2018-11-04T01:55:30.899Z,1012.95
2018-11-04T01:56:30.907Z,1012.95
2018-11-04T01:57:30.913Z,1012.97
2018-11-04T01:58:30.865Z,1012.94
2018-11-04T01:59:30.898Z,1012.92
2018-11-04T02:00:30.843Z,1012.89
2018-11-04T02:01:30.832Z,1012.84
2018-11-04T02:02:30.830Z,1012.85
2018-11-04T02:03:30.809Z,1012.85
2018-11-04T02:04:30.802Z,1012.86
2018-11-04T02:05:30.831Z,1012.80
2018-11-04T02:06:30.776Z,1012.78
2018-11-04T02:07:30.772Z,1012.74
2018-11-04T02:08:30.764Z,1012.75
2018-11-04T02:09:30.747Z,1012.75
2018-11-04T02:10:30.735Z,1012.72
2018-11-04T02:11:30.764Z,1012.74
2018-11-04T02:12:30.711Z,1012.68
2018-11-04T02:13:30.702Z,1012.70
2018-11-04T02:14:30.703Z,1012.69
2018-11-04T02:15:30.682Z,1012.59
2018-11-04T02:16:30.715Z,1012.62
2018-11-04T02:17:30.709Z,1012.56
2018-11-04T02:18:30.642Z,1012.58
2018-11-04T02:19:30.634Z,1012.55
2018-11-04T02:20:30.644Z,1012.52
2018-11-04T02:21:30.651Z,1012.52
2018-11-04T02:22:30.604Z,1012.52
2018-11-04T02:23:30.586Z,1012.49
2018-11-04T02:24:30.583Z,1012.51
2018-11-04T02:25:30.564Z,1012.53
2018-11-04T02:26:30.603Z,1012.46
2018-11-04T02:27:30.553Z,1012.45
2018-11-04T02:28:30.531Z,1012.41
2018-11-04T02:29:30.524Z,1012.35
2018-11-04T02:30:30.519Z,1012.35
2018-11-04T02:31:30.507Z,1012.35
2018-11-04T02:32:30.530Z,1012.35
2018-11-04T02:33:30.519Z,1012.35
2018-11-04T02:34:30.516Z,1012.28
2018-11-04T02:35:30.457Z,1012.28
2018-11-04T02:36:30.454Z,1012.28
2018-11-04T02:37:30.436Z,1012.27
2018-11-04T02:38:30.432Z,1012.27
2018-11-04T02:39:30.425Z,1012.25
2018-11-04T02:40:30.442Z,1012.25
2018-11-04T02:41:30.450Z,1012.24
2018-11-04T02:42:30.377Z,1012.22
2018-11-04T02:43:30.373Z,1012.22
2018-11-04T02:44:30.363Z,1012.18
2018-11-04T02:45:30.375Z,1012.18
2018-11-04T02:46:30.602Z,1012.19
2018-11-04T02:47:30.326Z,1012.18
2018-11-04T02:48:30.316Z,1012.23
2018-11-04T02:49:30.321Z,1012.21
2018-11-04T02:50:30.292Z,1012.22
2018-11-04T02:51:30.281Z,1012.17
2018-11-04T02:52:30.325Z,1012.16
2018-11-04T02:53:30.263Z,1012.18
2018-11-04T02:54:30.253Z,1012.17
2018-11-04T02:55:30.241Z,1012.15
2018-11-04T02:56:30.266Z,1012.15
2018-11-04T02:57:30.211Z,1012.15
2018-11-04T02:58:30.214Z,1012.15
2018-11-04T02:59:30.193Z,1012.13
2018-11-04T03:00:30.184Z,1012.12
2018-11-04T03:01:30.171Z,1012.15
2018-11-04T03:02:30.221Z,1012.13
2018-11-04T03:03:30.148Z,1012.13
2018-11-04T03:04:30.136Z,1012.11
2018-11-04T03:05:30.127Z,1012.16
2018-11-04T03:06:30.165Z,1012.14
2018-11-04T03:07:30.107Z,1012.12
2018-11-04T03:08:30.131Z,1012.10
2018-11-04T03:09:30.080Z,1012.08
2018-11-04T03:10:30.067Z,1012.08
2018-11-04T03:11:30.061Z,1012.06
2018-11-04T03:12:30.058Z,1012.07
2018-11-04T03:13:30.038Z,1012.12
2018-11-04T03:14:30.070Z,1012.09
2018-11-04T03:15:30.013Z,1012.10
2018-11-04T03:16:30.160Z,1012.06
2018-11-04T03:17:29.997Z,1012.08
2018-11-04T03:18:30.020Z,1012.08
2018-11-04T03:19:29.978Z,1012.05
2018-11-04T03:20:30.000Z,1012.03
2018-11-04T03:21:29.955Z,1012.05
2018-11-04T03:22:29.937Z,1012.06
2018-11-04T03:23:29.928Z,1012.00
2018-11-04T03:24:30.036Z,1012.03
2018-11-04T03:25:29.912Z,1012.05
2018-11-04T03:26:29.934Z,1011.99
2018-11-04T03:27:29.889Z,1012.01
2018-11-04T03:28:29.868Z,1011.97
2018-11-04T03:29:29.857Z,1011.96
2018-11-04T03:30:29.895Z,1011.94
2018-11-04T03:31:29.885Z,1011.93
2018-11-04T03:32:29.831Z,1011.91
2018-11-04T03:33:29.821Z,1011.88
2018-11-04T03:34:29.805Z,1011.88
2018-11-04T03:35:29.796Z,1011.90
2018-11-04T03:36:29.833Z,1011.87
2018-11-04T03:37:29.808Z,1011.87
2018-11-04T03:38:29.765Z,1011.85
2018-11-04T03:39:29.744Z,1011.82
2018-11-04T03:40:29.732Z,1011.79
2018-11-04T03:41:29.740Z,1011.86
2018-11-04T03:42:29.722Z,1011.81
2018-11-04T03:43:29.744Z,1011.82
2018-11-04T03:44:29.697Z,1011.82
2018-11-04T03:45:29.719Z,1011.81
2018-11-04T03:46:29.733Z,1011.81
2018-11-04T03:47:29.669Z,1011.80
2018-11-04T03:48:29.647Z,1011.82
2018-11-04T03:49:29.719Z,1011.76
2018-11-04T03:50:29.625Z,1011.77
2018-11-04T03:51:29.616Z,1011.73
2018-11-04T03:52:29.652Z,1011.74
2018-11-04T03:53:29.633Z,1011.71
2018-11-04T03:54:29.579Z,1011.72
2018-11-04T03:55:29.581Z,1011.70
2018-11-04T03:56:29.559Z,1011.70
2018-11-04T03:57:29.589Z,1011.72
2018-11-04T03:58:29.581Z,1011.70
2018-11-04T03:59:29.535Z,1011.71
2018-11-04T04:00:29.556Z,1011.70
2018-11-04T04:01:29.501Z,1011.73
2018-11-04T04:02:29.493Z,1011.68
2018-11-04T04:03:29.483Z,1011.71
2018-11-04T04:04:29.485Z,1011.75
2018-11-04T04:05:29.465Z,1011.70
2018-11-04T04:06:29.490Z,1011.71
2018-11-04T04:07:29.431Z,1011.72
2018-11-04T04:08:29.435Z,1011.73
2018-11-04T04:09:29.425Z,1011.74
2018-11-04T04:10:29.398Z,1011.73
2018-11-04T04:11:29.391Z,1011.66
2018-11-04T04:12:29.430Z,1011.67
2018-11-04T04:13:29.409Z,1011.63
2018-11-04T04:14:29.365Z,1011.62
2018-11-04T04:15:29.345Z,1011.62
2018-11-04T04:16:29.607Z,1011.64
2018-11-04T04:17:29.323Z,1011.61
2018-11-04T04:18:29.313Z,1011.61
2018-11-04T04:19:29.354Z,1011.63
2018-11-04T04:20:29.316Z,1011.63
2018-11-04T04:21:29.282Z,1011.64
2018-11-04T04:22:29.265Z,1011.64
2018-11-04T04:23:29.264Z,1011.66
2018-11-04T04:24:29.243Z,1011.64
2018-11-04T04:25:29.275Z,1011.61
2018-11-04T04:26:29.232Z,1011.63
2018-11-04T04:27:29.210Z,1011.62
2018-11-04T04:28:29.207Z,1011.62
2018-11-04T04:29:29.193Z,1011.63
2018-11-04T04:30:29.184Z,1011.57
2018-11-04T04:31:29.223Z,1011.59
2018-11-04T04:32:29.155Z,1011.62
2018-11-04T04:33:29.175Z,1011.54
2018-11-04T04:34:29.134Z,1011.56
2018-11-04T04:35:29.117Z,1011.52
2018-11-04T04:36:29.119Z,1011.52
2018-11-04T04:37:29.150Z,1011.51
2018-11-04T04:38:29.090Z,1011.53
2018-11-04T04:39:29.085Z,1011.51
2018-11-04T04:40:29.070Z,1011.52
2018-11-04T04:41:29.056Z,1011.51
2018-11-04T04:42:29.092Z,1011.48
2018-11-04T04:43:29.036Z,1011.53
2018-11-04T04:44:29.015Z,1011.50
2018-11-04T04:45:29.029Z,1011.50
2018-11-04T04:46:29.190Z,1011.48
2018-11-04T04:47:28.981Z,1011.46
2018-11-04T04:48:29.012Z,1011.45
2018-11-04T04:49:28.968Z,1011.42
2018-11-04T04:50:28.959Z,1011.43
2018-11-04T04:51:28.939Z,1011.39
2018-11-04T04:52:28.942Z,1011.41
2018-11-04T04:53:28.915Z,1011.39
2018-11-04T04:54:28.959Z,1011.39
2018-11-04T04:55:28.894Z,1011.34
2018-11-04T04:56:28.880Z,1011.36
2018-11-04T04:57:28.871Z,1011.31
2018-11-04T04:58:28.872Z,1011.26
2018-11-04T04:59:28.852Z,1011.30
2018-11-04T05:00:28.880Z,1011.28
2018-11-04T05:01:28.833Z,1011.27
2018-11-04T05:02:28.812Z,1011.25
2018-11-04T05:03:28.801Z,1011.28
2018-11-04T05:04:28.799Z,1011.26
2018-11-04T05:05:28.786Z,1011.26
2018-11-04T05:06:28.810Z,1011.26
2018-11-04T05:07:28.767Z,1011.28
2018-11-04T05:08:28.744Z,1011.21
2018-11-04T05:09:28.744Z,1011.24
2018-11-04T05:10:28.726Z,1011.26
2018-11-04T05:11:28.724Z,1011.25
2018-11-04T05:12:28.750Z,1011.26
2018-11-04T05:13:28.695Z,1011.23
2018-11-04T05:14:28.680Z,1011.25
2018-11-04T05:15:28.721Z,1011.29
2018-11-04T05:16:28.754Z,1011.31
2018-11-04T05:17:28.648Z,1011.32
2018-11-04T05:18:28.644Z,1011.29
2018-11-04T05:19:28.624Z,1011.27
2018-11-04T05:20:28.609Z,1011.22
2018-11-04T05:21:28.655Z,1011.28
2018-11-04T05:22:28.589Z,1011.27
2018-11-04T05:23:28.636Z,1011.21
2018-11-04T05:24:28.585Z,1011.23
2018-11-04T05:25:28.554Z,1011.19
2018-11-04T05:26:28.541Z,1011.19
2018-11-04T05:27:28.536Z,1011.19
2018-11-04T05:28:28.521Z,1011.16
2018-11-04T05:29:28.545Z,1011.15
2018-11-04T05:30:28.547Z,1011.20
2018-11-04T05:31:28.501Z,1011.19
2018-11-04T05:32:28.477Z,1011.21
2018-11-04T05:33:28.464Z,1011.19
2018-11-04T05:34:28.494Z,1011.21
2018-11-04T05:35:28.448Z,1011.20
2018-11-04T05:36:28.431Z,1011.25
2018-11-04T05:37:28.435Z,1011.24
2018-11-04T05:38:28.552Z,1011.20
2018-11-04T05:39:28.393Z,1011.18
2018-11-04T05:40:28.390Z,1011.19
2018-11-04T05:41:28.371Z,1011.21
2018-11-04T05:42:28.360Z,1011.17
2018-11-04T05:43:28.359Z,1011.17
2018-11-04T05:44:28.417Z,1011.14
2018-11-04T05:45:28.330Z,1011.19
2018-11-04T05:46:28.623Z,1011.19
2018-11-04T05:47:28.306Z,1011.19
2018-11-04T05:48:28.293Z,1011.18
2018-11-04T05:49:28.285Z,1011.20
2018-11-04T05:50:28.321Z,1011.17
2018-11-04T05:51:28.268Z,1011.19
2018-11-04T05:52:28.251Z,1011.21
2018-11-04T05:53:28.243Z,1011.22
2018-11-04T05:54:28.224Z,1011.19
2018-11-04T05:55:28.258Z,1011.22
2018-11-04T05:56:28.207Z,1011.21
2018-11-04T05:57:28.204Z,1011.26
2018-11-04T05:58:28.181Z,1011.24
2018-11-04T05:59:28.175Z,1011.24
2018-11-04T06:00:28.161Z,1011.27
2018-11-04T06:01:28.188Z,1011.28
2018-11-04T06:02:28.133Z,1011.26
2018-11-04T06:03:28.201Z,1011.24
2018-11-04T06:04:28.119Z,1011.28
2018-11-04T06:05:28.101Z,1011.24
2018-11-04T06:06:28.092Z,1011.30
2018-11-04T06:07:28.139Z,1011.29
2018-11-04T06:08:28.070Z,1011.31
2018-11-04T06:09:28.123Z,1011.32
2018-11-04T06:10:28.054Z,1011.27
2018-11-04T06:11:28.046Z,1011.24
2018-11-04T06:12:28.025Z,1011.28
2018-11-04T06:13:28.056Z,1011.29
2018-11-04T06:14:28.001Z,1011.29
2018-11-04T06:15:28.000Z,1011.27
2018-11-04T06:16:28.200Z,1011.27
2018-11-04T06:17:27.969Z,1011.22
2018-11-04T06:18:27.956Z,1011.24
2018-11-04T06:19:27.997Z,1011.22
2018-11-04T06:20:27.930Z,1011.24
2018-11-04T06:21:27.931Z,1011.26
2018-11-04T06:22:27.913Z,1011.24
2018-11-04T06:23:27.901Z,1011.24
2018-11-04T06:24:27.890Z,1011.26
2018-11-04T06:25:27.922Z,1011.19
2018-11-04T06:26:27.861Z,1011.22
2018-11-04T06:27:27.856Z,1011.21
2018-11-04T06:28:27.887Z,1011.23
2018-11-04T06:29:27.854Z,1011.23
2018-11-04T06:30:27.830Z,1011.25
2018-11-04T06:31:27.854Z,1011.22
2018-11-04T06:32:27.807Z,1011.23
2018-11-04T06:33:27.788Z,1011.22
2018-11-04T06:34:27.791Z,1011.22
2018-11-04T06:35:27.775Z,1011.24
2018-11-04T06:36:27.760Z,1011.17
2018-11-04T06:37:27.783Z,1011.16
2018-11-04T06:38:27.728Z,1011.17
2018-11-04T06:39:27.720Z,1011.19
2018-11-04T06:40:27.718Z,1011.18
2018-11-04T06:41:27.696Z,1011.20
2018-11-04T06:42:27.685Z,1011.20
2018-11-04T06:43:27.717Z,1011.20
2018-11-04T06:44:27.659Z,1011.21
2018-11-04T06:45:27.650Z,1011.20
2018-11-04T06:46:27.774Z,1011.22
2018-11-04T06:47:27.762Z,1011.22
2018-11-04T06:48:27.613Z,1011.19
2018-11-04T06:49:27.646Z,1011.16
2018-11-04T06:50:27.642Z,1011.22
2018-11-04T06:51:27.580Z,1011.22
2018-11-04T06:52:27.582Z,1011.23
2018-11-04T06:53:27.558Z,1011.19
2018-11-04T06:54:27.587Z,1011.21
2018-11-04T06:55:27.544Z,1011.16
2018-11-04T06:56:27.578Z,1011.16
2018-11-04T06:57:27.513Z,1011.11
2018-11-04T06:58:27.512Z,1011.10
2018-11-04T06:59:27.495Z,1011.08
2018-11-04T07:00:27.495Z,1011.07
2018-11-04T07:01:27.469Z,1011.05
2018-11-04T07:02:27.507Z,1011.09
2018-11-04T07:03:27.496Z,1011.04
2018-11-04T07:04:27.436Z,1011.01
2018-11-04T07:05:27.466Z,1011.01
2018-11-04T07:06:27.417Z,1010.95
2018-11-04T07:07:27.408Z,1011.02
2018-11-04T07:08:27.394Z,1011.00
2018-11-04T07:09:27.396Z,1010.95
2018-11-04T07:10:27.371Z,1010.97
2018-11-04T07:11:27.414Z,1010.94
2018-11-04T07:12:27.363Z,1010.94
2018-11-04T07:13:27.337Z,1010.93
2018-11-04T07:14:27.333Z,1010.93
2018-11-04T07:15:27.315Z,1010.91
2018-11-04T07:16:27.334Z,1010.89
2018-11-04T07:17:27.330Z,1010.90
2018-11-04T07:18:27.292Z,1010.89
2018-11-04T07:19:27.306Z,1010.85
2018-11-04T07:20:27.257Z,1010.83
2018-11-04T07:21:27.250Z,1010.88
2018-11-04T07:22:27.233Z,1010.86
2018-11-04T07:23:27.230Z,1010.87
2018-11-04T07:24:27.219Z,1010.85
2018-11-04T07:25:27.340Z,1010.88
2018-11-04T07:26:27.197Z,1010.87
2018-11-04T07:27:27.177Z,1010.88
2018-11-04T07:28:27.163Z,1010.88
2018-11-04T07:29:27.156Z,1010.87
2018-11-04T07:30:27.143Z,1010.88
2018-11-04T07:31:27.191Z,1010.88
2018-11-04T07:32:27.161Z,1010.90
2018-11-04T07:33:27.108Z,1010.89
2018-11-04T07:34:27.093Z,1010.89
2018-11-04T07:35:27.086Z,1010.86
2018-11-04T07:36:27.075Z,1010.88
2018-11-04T07:37:27.064Z,1010.90
2018-11-04T07:38:27.096Z,1010.92
2018-11-04T07:39:27.054Z,1010.86
2018-11-04T07:40:27.034Z,1010.90
2018-11-04T07:41:27.018Z,1010.83
2018-11-04T07:42:27.006Z,1010.81
2018-11-04T07:43:27.035Z,1010.81
2018-11-04T07:44:27.138Z,1010.82
2018-11-04T07:45:26.986Z,1010.81
2018-11-04T07:46:27.231Z,1010.87
2018-11-04T07:47:26.948Z,1010.84
2018-11-04T07:48:26.940Z,1010.82
2018-11-04T07:49:26.969Z,1010.80
2018-11-04T07:50:26.919Z,1010.78
2018-11-04T07:51:26.963Z,1010.83
2018-11-04T07:52:26.908Z,1010.77
2018-11-04T07:53:26.881Z,1010.76
2018-11-04T07:54:26.912Z,1010.79
2018-11-04T07:55:26.859Z,1010.81
2018-11-04T07:56:26.856Z,1010.79
2018-11-04T07:57:26.876Z,1010.79
2018-11-04T07:58:26.829Z,1010.75
2018-11-04T07:59:26.823Z,1010.73
2018-11-04T08:00:26.800Z,1010.73
2018-11-04T08:01:26.811Z,1010.72
2018-11-04T08:02:26.784Z,1010.72
2018-11-04T08:03:26.824Z,1010.71
2018-11-04T08:04:26.763Z,1010.73
2018-11-04T08:05:26.797Z,1010.70
2018-11-04T08:06:26.736Z,1010.71
2018-11-04T08:07:26.786Z,1010.73
2018-11-04T08:08:26.718Z,1010.71
2018-11-04T08:09:26.700Z,1010.71
2018-11-04T08:10:26.697Z,1010.72
2018-11-04T08:11:26.717Z,1010.74
2018-11-04T08:12:26.719Z,1010.75
2018-11-04T08:13:26.688Z,1010.78
2018-11-04T08:14:26.653Z,1010.74
2018-11-04T08:15:26.689Z,1010.75
2018-11-04T08:16:26.781Z,1010.74
2018-11-04T08:17:26.617Z,1010.76
2018-11-04T08:18:26.615Z,1010.73
2018-11-04T08:19:26.584Z,1010.69
2018-11-04T08:20:26.572Z,1010.65
2018-11-04T08:21:26.753Z,1010.61
2018-11-04T08:22:26.594Z,1010.60
2018-11-04T08:23:26.541Z,1010.57
2018-11-04T08:24:26.530Z,1010.59
2018-11-04T08:25:26.556Z,1010.59
2018-11-04T08:26:26.514Z,1010.54
2018-11-04T08:27:26.492Z,1010.52
2018-11-04T08:28:26.534Z,1010.51
2018-11-04T08:29:26.479Z,1010.46
2018-11-04T08:30:26.479Z,1010.41
2018-11-04T08:31:26.455Z,1010.42
2018-11-04T08:32:26.541Z,1010.39
2018-11-04T08:33:26.424Z,1010.37
2018-11-04T08:34:26.457Z,1010.35
2018-11-04T08:35:26.415Z,1010.36
2018-11-04T08:36:26.397Z,1010.34
2018-11-04T08:37:26.392Z,1010.34
2018-11-04T08:38:26.421Z,1010.36
2018-11-04T08:39:26.367Z,1010.40
2018-11-04T08:40:26.539Z,1010.36
2018-11-04T08:41:26.340Z,1010.28
2018-11-04T08:42:26.331Z,1010.32
2018-11-04T08:43:26.360Z,1010.32
2018-11-04T08:44:26.317Z,1010.28
2018-11-04T08:45:26.331Z,1010.33
2018-11-04T08:46:26.353Z,1010.33
2018-11-04T08:47:26.275Z,1010.31
2018-11-04T08:48:26.265Z,1010.32
2018-11-04T08:49:26.250Z,1010.35
2018-11-04T08:50:26.300Z,1010.33
2018-11-04T08:51:26.229Z,1010.35
2018-11-04T08:52:26.237Z,1010.35
2018-11-04T08:53:26.245Z,1010.32
2018-11-04T08:54:26.196Z,1010.37
2018-11-04T08:55:26.183Z,1010.35
2018-11-04T08:56:26.176Z,1010.36
2018-11-04T08:57:26.171Z,1010.36
2018-11-04T08:58:26.186Z,1010.39
2018-11-04T08:59:26.146Z,1010.36
2018-11-04T09:00:26.122Z,1010.38
2018-11-04T09:01:26.113Z,1010.35
2018-11-04T09:02:26.099Z,1010.40
2018-11-04T09:03:26.130Z,1010.36
2018-11-04T09:04:26.091Z,1010.35
2018-11-04T09:05:26.064Z,1010.31
2018-11-04T09:06:26.085Z,1010.33
2018-11-04T09:07:26.048Z,1010.33
2018-11-04T09:08:26.030Z,1010.33
2018-11-04T09:09:26.064Z,1010.34
2018-11-04T09:10:26.022Z,1010.35
2018-11-04T09:11:25.999Z,1010.30
2018-11-04T09:12:26.008Z,1010.34
2018-11-04T09:13:26.011Z,1010.35
2018-11-04T09:14:26.047Z,1010.35
2018-11-04T09:15:25.999Z,1010.39
2018-11-04T09:16:26.234Z,1010.37
2018-11-04T09:17:25.933Z,1010.35
2018-11-04T09:18:25.928Z,1010.30
2018-11-04T09:19:25.935Z,1010.37
2018-11-04T09:20:25.905Z,1010.36
2018-11-04T09:21:25.930Z,1010.38
2018-11-04T09:22:25.963Z,1010.39
2018-11-04T09:23:25.917Z,1010.35
2018-11-04T09:24:25.903Z,1010.36
2018-11-04T09:25:25.851Z,1010.34
2018-11-04T09:26:25.918Z,1010.38
2018-11-04T09:27:25.836Z,1010.32
2018-11-04T09:28:25.807Z,1010.36
2018-11-04T09:29:25.818Z,1010.31
2018-11-04T09:30:25.788Z,1010.30
2018-11-04T09:31:25.774Z,1010.27
2018-11-04T09:32:25.810Z,1010.30
2018-11-04T09:33:25.753Z,1010.31
2018-11-04T09:34:25.746Z,1010.25
2018-11-04T09:35:26.004Z,1010.26
2018-11-04T09:36:25.881Z,1010.26
2018-11-04T09:37:25.755Z,1010.32
2018-11-04T09:38:25.743Z,1010.26
2018-11-04T09:39:25.691Z,1010.30
2018-11-04T09:40:25.674Z,1010.24
2018-11-04T09:41:25.660Z,1010.23
2018-11-04T09:42:25.651Z,1010.16
2018-11-04T09:43:25.638Z,1010.18
2018-11-04T09:44:25.679Z,1010.17
2018-11-04T09:45:25.625Z,1010.18
2018-11-04T09:46:25.799Z,1010.18
2018-11-04T09:47:25.590Z,1010.17
2018-11-04T09:48:25.582Z,1010.17
2018-11-04T09:49:25.573Z,1010.19
2018-11-04T09:50:25.596Z,1010.18
2018-11-04T09:51:25.562Z,1010.19
2018-11-04T09:52:25.535Z,1010.24
2018-11-04T09:53:25.568Z,1010.24
2018-11-04T09:54:25.521Z,1010.24
2018-11-04T09:55:25.515Z,1010.22
2018-11-04T09:56:25.606Z,1010.23
2018-11-04T09:57:25.481Z,1010.25
2018-11-04T09:58:25.481Z,1010.25
2018-11-04T09:59:25.467Z,1010.23
2018-11-04T10:00:25.453Z,1010.22
2018-11-04T10:01:25.437Z,1010.20
2018-11-04T10:02:25.475Z,1010.20
2018-11-04T10:03:25.423Z,1010.23
2018-11-04T10:04:25.415Z,1010.24
2018-11-04T10:05:25.396Z,1010.27
2018-11-04T10:06:25.376Z,1010.24
2018-11-04T10:07:25.372Z,1010.23
2018-11-04T10:08:25.397Z,1010.21
2018-11-04T10:09:25.350Z,1010.20
2018-11-04T10:10:25.341Z,1010.22
2018-11-04T10:11:25.370Z,1010.19
2018-11-04T10:12:25.308Z,1010.20
2018-11-04T10:13:25.343Z,1010.15
2018-11-04T10:14:25.355Z,1010.10
2018-11-04T10:15:25.281Z,1010.10
2018-11-04T10:16:25.508Z,1010.10
2018-11-04T10:17:25.256Z,1010.10
2018-11-04T10:18:25.301Z,1010.06
2018-11-04T10:19:25.636Z,1010.10
2018-11-04T10:20:25.674Z,1010.07
2018-11-04T10:21:25.214Z,1010.07
2018-11-04T10:22:25.212Z,1010.06
2018-11-04T10:23:25.189Z,1010.03
2018-11-04T10:24:25.180Z,1010.02
2018-11-04T10:25:25.171Z,1009.98
2018-11-04T10:26:25.194Z,1009.99
2018-11-04T10:27:25.154Z,1010.00
2018-11-04T10:28:25.131Z,1010.05
2018-11-04T10:29:25.119Z,1009.99
2018-11-04T10:30:25.244Z,1009.97
2018-11-04T10:31:25.103Z,1009.92
2018-11-04T10:32:25.195Z,1009.95
2018-11-04T10:33:25.133Z,1009.92
2018-11-04T10:34:25.074Z,1009.95
2018-11-04T10:35:25.105Z,1009.92
2018-11-04T10:36:25.213Z,1009.91
2018-11-04T10:37:25.113Z,1009.89
2018-11-04T10:38:25.030Z,1009.91
2018-11-04T10:39:25.026Z,1009.92
2018-11-04T10:40:25.022Z,1009.93
2018-11-04T10:41:25.031Z,1009.91
2018-11-04T10:42:25.036Z,1009.87
2018-11-04T10:43:25.045Z,1009.84
2018-11-04T10:44:24.952Z,1009.83
2018-11-04T10:45:24.956Z,1009.82
2018-11-04T10:46:25.242Z,1009.83
2018-11-04T10:47:24.943Z,1009.82
2018-11-04T10:48:24.910Z,1009.79
2018-11-04T10:49:24.965Z,1009.84
2018-11-04T10:50:24.887Z,1009.82
2018-11-04T10:51:24.876Z,1009.81
2018-11-04T10:52:24.866Z,1009.80
2018-11-04T10:53:24.851Z,1009.76
2018-11-04T10:54:24.842Z,1009.73
2018-11-04T10:55:24.878Z,1009.73
2018-11-04T10:56:24.817Z,1009.69
2018-11-04T10:57:24.820Z,1009.67
2018-11-04T10:58:24.798Z,1009.63
2018-11-04T10:59:24.791Z,1009.61
2018-11-04T11:00:24.778Z,1009.61
2018-11-04T11:01:24.810Z,1009.62
2018-11-04T11:02:24.752Z,1009.60
2018-11-04T11:03:24.747Z,1009.58
2018-11-04T11:04:24.772Z,1009.58
2018-11-04T11:05:24.716Z,1009.53
2018-11-04T11:06:24.743Z,1009.54
2018-11-04T11:07:24.696Z,1009.52
2018-11-04T11:08:24.685Z,1009.49
2018-11-04T11:09:24.710Z,1009.50
2018-11-04T11:10:24.665Z,1009.46
2018-11-04T11:11:24.649Z,1009.46
2018-11-04T11:12:24.684Z,1009.41
2018-11-04T11:13:24.628Z,1009.44
2018-11-04T11:14:24.620Z,1009.37
2018-11-04T11:15:24.621Z,1009.40
2018-11-04T11:16:24.814Z,1009.31
2018-11-04T11:17:24.622Z,1009.34
2018-11-04T11:18:24.572Z,1009.35
2018-11-04T11:19:24.557Z,1009.30
2018-11-04T11:20:24.593Z,1009.28
2018-11-04T11:21:24.558Z,1009.29
2018-11-04T11:22:24.557Z,1009.30
2018-11-04T11:23:24.556Z,1009.28
2018-11-04T11:24:24.516Z,1009.24
2018-11-04T11:25:24.495Z,1009.20
2018-11-04T11:26:24.480Z,1009.22
2018-11-04T11:27:24.597Z,1009.20
2018-11-04T11:28:24.499Z,1009.19
2018-11-04T11:29:24.452Z,1009.17
2018-11-04T11:30:24.475Z,1009.18
2018-11-04T11:31:24.431Z,1009.15
2018-11-04T11:32:24.411Z,1009.11
2018-11-04T11:33:24.404Z,1009.14
2018-11-04T11:34:24.393Z,1009.10
2018-11-04T11:35:24.439Z,1009.07
2018-11-04T11:36:24.381Z,1009.06
2018-11-04T11:37:24.408Z,1008.98
2018-11-04T11:38:24.344Z,1008.99
2018-11-04T11:39:24.340Z,1008.94
2018-11-04T11:40:24.330Z,1008.91
2018-11-04T11:41:24.355Z,1008.92
2018-11-04T11:42:24.310Z,1008.85
2018-11-04T11:43:24.293Z,1008.84
2018-11-04T11:44:24.287Z,1008.82
2018-11-04T11:45:24.317Z,1008.79
2018-11-04T11:46:24.383Z,1008.74
2018-11-04T11:47:24.249Z,1008.76
2018-11-04T11:48:24.242Z,1008.71
2018-11-04T11:49:24.220Z,1008.69
2018-11-04T11:50:24.258Z,1008.70
2018-11-04T11:51:24.236Z,1008.66
2018-11-04T11:52:24.214Z,1008.67
2018-11-04T11:53:24.178Z,1008.63
2018-11-04T11:54:24.164Z,1008.55
2018-11-04T11:55:24.154Z,1008.52
2018-11-04T11:56:24.185Z,1008.57
2018-11-04T11:57:24.168Z,1008.56
2018-11-04T11:58:24.125Z,1008.57
2018-11-04T11:59:24.244Z,1008.55
2018-11-04T12:00:24.104Z,1008.52
2018-11-04T12:01:24.088Z,1008.57
2018-11-04T12:02:24.155Z,1008.51
2018-11-04T12:03:24.112Z,1008.52
2018-11-04T12:04:24.092Z,1008.51
2018-11-04T12:05:24.090Z,1008.48